sensor_id;sensor_type;location;lat;lon;timestamp;pressure;altitude;pressure_sealevel;temperature;humidity
3968;BME280;9221;42.646;23.380;2022-11-20T00:02:14;93968.50;;;15.36;87.16
3968;BME280;9221;42.646;23.380;2022-11-20T00:04:40;93864.50;;;14.97;88.43
3968;BME280;9221;42.646;23.380;2022-11-20T00:07:05;93825.94;;;14.73;88.55
3968;BME280;9221;42.646;23.380;2022-11-20T00:09:31;93855.47;;;14.92;88.59
3968;BME280;9221;42.646;23.380;2022-11-20T00:11:56;93882.63;;;15.29;88.09
3968;BME280;9221;42.646;23.380;2022-11-20T00:14:21;93857.31;;;15.33;87.21
3968;BME280;9221;42.646;23.380;2022-11-20T00:16:47;93800.56;;;14.99;86.51
3968;BME280;9221;42.646;23.380;2022-11-20T00:19:12;93884.94;;;15.38;86.57
3968;BME280;9221;42.646;23.380;2022-11-20T00:21:38;93845.69;;;14.99;86.74
3968;BME280;9221;42.646;23.380;2022-11-20T00:24:03;93859.81;;;15.41;86.77
3968;BME280;9221;42.646;23.380;2022-11-20T00:26:29;93853.19;;;15.23;86.17
3968;BME280;9221;42.646;23.380;2022-11-20T00:29:00;93876.53;;;15.35;86.34
3968;BME280;9221;42.646;23.380;2022-11-20T00:31:26;93853.19;;;15.23;85.54
3968;BME280;9221;42.646;23.380;2022-11-20T00:33:53;93834.72;;;15.09;84.87
3968;BME280;9221;42.646;23.380;2022-11-20T00:36:24;93846.78;;;15.53;84.22
3968;BME280;9221;42.646;23.380;2022-11-20T00:38:57;93839.03;;;15.65;81.77
3968;BME280;9221;42.646;23.380;2022-11-20T00:41:23;93862.84;;;15.86;80.62
3968;BME280;9221;42.646;23.380;2022-11-20T00:43:51;93850.59;;;15.99;79.24
3968;BME280;9221;42.646;23.380;2022-11-20T00:46:19;93859.63;;;16.11;79.56
3968;BME280;9221;42.646;23.380;2022-11-20T00:48:45;93899.75;;;16.16;78.54
3968;BME280;9221;42.646;23.380;2022-11-20T00:51:12;93880.91;;;16.18;78.01
3968;BME280;9221;42.646;23.380;2022-11-20T00:53:38;93836.63;;;15.77;77.92
3968;BME280;9221;42.646;23.380;2022-11-20T00:56:06;93904.25;;;16.36;77.15
3968;BME280;9221;42.646;23.380;2022-11-20T00:58:34;93892.81;;;16.42;76.87
3968;BME280;9221;42.646;23.380;2022-11-20T01:01:20;93874.78;;;16.44;77.00
3968;BME280;9221;42.646;23.380;2022-11-20T01:03:48;93885.84;;;16.41;76.67
3968;BME280;9221;42.646;23.380;2022-11-20T01:06:35;93952.81;;;16.45;77.01
3968;BME280;9221;42.646;23.380;2022-11-20T01:09:03;93852.47;;;16.45;76.31
3968;BME280;9221;42.646;23.380;2022-11-20T01:11:31;93873.34;;;16.48;75.90
3968;BME280;9221;42.646;23.380;2022-11-20T01:13:58;93843.69;;;16.51;75.77
3968;BME280;9221;42.646;23.380;2022-11-20T01:16:36;93887.50;;;16.62;75.46
3968;BME280;9221;42.646;23.380;2022-11-20T01:19:04;93875.44;;;16.60;74.70
3968;BME280;9221;42.646;23.380;2022-11-20T01:21:41;93862.91;;;16.73;73.37
3968;BME280;9221;42.646;23.380;2022-11-20T01:24:10;93848.59;;;16.68;73.69
3968;BME280;9221;42.646;23.380;2022-11-20T01:26:38;93833.44;;;16.75;73.80
3968;BME280;9221;42.646;23.380;2022-11-20T01:29:05;93857.59;;;16.67;73.87
3968;BME280;9221;42.646;23.380;2022-11-20T01:31:35;93847.38;;;16.64;74.70
3968;BME280;9221;42.646;23.380;2022-11-20T01:34:05;93857.81;;;16.72;73.79
3968;BME280;9221;42.646;23.380;2022-11-20T01:36:32;93806.00;;;16.41;73.57
3968;BME280;9221;42.646;23.380;2022-11-20T01:39:01;93829.34;;;16.66;73.36
3968;BME280;9221;42.646;23.380;2022-11-20T01:41:29;93809.03;;;16.78;73.64
3968;BME280;9221;42.646;23.380;2022-11-20T01:44:16;93818.88;;;16.71;74.46
3968;BME280;9221;42.646;23.380;2022-11-20T01:49:42;93806.38;;;16.65;74.55
3968;BME280;9221;42.646;23.380;2022-11-20T01:52:22;93759.75;;;16.15;75.54
3968;BME280;9221;42.646;23.380;2022-11-20T01:54:54;93805.22;;;16.47;75.94
3968;BME280;9221;42.646;23.380;2022-11-20T01:57:21;93809.50;;;16.35;76.80
3968;BME280;9221;42.646;23.380;2022-11-20T01:59:54;93825.66;;;16.40;75.96
3968;BME280;9221;42.646;23.380;2022-11-20T02:02:22;93822.41;;;16.51;75.16
3968;BME280;9221;42.646;23.380;2022-11-20T02:04:49;93772.03;;;16.43;74.59
3968;BME280;9221;42.646;23.380;2022-11-20T02:07:17;93815.38;;;16.77;74.27
3968;BME280;9221;42.646;23.380;2022-11-20T02:09:43;93822.56;;;16.77;73.93
3968;BME280;9221;42.646;23.380;2022-11-20T02:12:08;93778.16;;;16.50;73.82
3968;BME280;9221;42.646;23.380;2022-11-20T02:14:54;93846.09;;;16.80;73.95
3968;BME280;9221;42.646;23.380;2022-11-20T02:17:19;93851.84;;;16.70;73.64
3968;BME280;9221;42.646;23.380;2022-11-20T02:19:45;93811.31;;;16.68;73.71
3968;BME280;9221;42.646;23.380;2022-11-20T02:22:30;93822.78;;;16.75;73.43
3968;BME280;9221;42.646;23.380;2022-11-20T02:25:00;93806.00;;;16.68;73.54
3968;BME280;9221;42.646;23.380;2022-11-20T02:27:27;93771.22;;;16.36;73.95
3968;BME280;9221;42.646;23.380;2022-11-20T02:29:57;93759.13;;;16.40;73.21
3968;BME280;9221;42.646;23.380;2022-11-20T02:32:31;93812.94;;;16.75;69.95
3968;BME280;9221;42.646;23.380;2022-11-20T02:34:57;93818.84;;;17.04;69.40
3968;BME280;9221;42.646;23.380;2022-11-20T02:37:32;93832.56;;;17.15;69.15
3968;BME280;9221;42.646;23.380;2022-11-20T02:39:58;93907.56;;;17.18;69.49
3968;BME280;9221;42.646;23.380;2022-11-20T02:42:24;93829.22;;;17.26;68.47
3968;BME280;9221;42.646;23.380;2022-11-20T02:44:49;93816.03;;;17.45;67.15
3968;BME280;9221;42.646;23.380;2022-11-20T02:47:15;93782.50;;;17.23;66.64
3968;BME280;9221;42.646;23.380;2022-11-20T02:49:40;93862.31;;;17.64;66.36
3968;BME280;9221;42.646;23.380;2022-11-20T02:52:05;93844.19;;;17.79;65.13
3968;BME280;9221;42.646;23.380;2022-11-20T02:54:31;93863.03;;;17.84;65.39
3968;BME280;9221;42.646;23.380;2022-11-20T02:56:58;93804.50;;;17.57;64.99
3968;BME280;9221;42.646;23.380;2022-11-20T02:59:23;93881.50;;;17.92;64.56
3968;BME280;9221;42.646;23.380;2022-11-20T03:01:48;93850.00;;;18.08;64.40
3968;BME280;9221;42.646;23.380;2022-11-20T03:04:14;93792.81;;;17.90;63.89
3968;BME280;9221;42.646;23.380;2022-11-20T03:06:39;93865.22;;;18.33;63.32
3968;BME280;9221;42.646;23.380;2022-11-20T03:09:05;93897.63;;;18.43;63.21
3968;BME280;9221;42.646;23.380;2022-11-20T03:11:30;93867.09;;;18.57;62.96
3968;BME280;9221;42.646;23.380;2022-11-20T03:13:56;93874.47;;;18.62;62.95
3968;BME280;9221;42.646;23.380;2022-11-20T03:16:22;93871.13;;;18.67;62.52
3968;BME280;9221;42.646;23.380;2022-11-20T03:18:48;93858.81;;;18.66;62.75
3968;BME280;9221;42.646;23.380;2022-11-20T03:21:15;93875.94;;;18.83;61.91
3968;BME280;9221;42.646;23.380;2022-11-20T03:23:40;93879.75;;;18.69;62.18
3968;BME280;9221;42.646;23.380;2022-11-20T03:28:34;93867.91;;;18.83;62.15
3968;BME280;9221;42.646;23.380;2022-11-20T03:31:08;93863.47;;;18.77;61.75
3968;BME280;9221;42.646;23.380;2022-11-20T03:33:34;93908.44;;;18.80;61.60
3968;BME280;9221;42.646;23.380;2022-11-20T03:36:08;93905.31;;;18.83;61.66
3968;BME280;9221;42.646;23.380;2022-11-20T03:38:35;93823.19;;;18.53;61.47
3968;BME280;9221;42.646;23.380;2022-11-20T03:41:05;93910.00;;;18.94;61.36
3968;BME280;9221;42.646;23.380;2022-11-20T03:43:32;93870.97;;;18.87;61.66
3968;BME280;9221;42.646;23.380;2022-11-20T03:45:58;93823.97;;;18.60;61.18
3968;BME280;9221;42.646;23.380;2022-11-20T03:48:24;93881.28;;;18.83;61.22
3968;BME280;9221;42.646;23.380;2022-11-20T03:50:50;93891.34;;;18.88;61.10
3968;BME280;9221;42.646;23.380;2022-11-20T03:53:16;93884.13;;;18.88;60.90
3968;BME280;9221;42.646;23.380;2022-11-20T03:55:41;93872.50;;;18.76;61.30
3968;BME280;9221;42.646;23.380;2022-11-20T03:58:07;93833.00;;;18.59;60.92
3968;BME280;9221;42.646;23.380;2022-11-20T04:00:33;93895.22;;;18.92;60.67
3968;BME280;9221;42.646;23.380;2022-11-20T04:02:59;93892.69;;;18.97;60.50
3968;BME280;9221;42.646;23.380;2022-11-20T04:05:24;93895.25;;;18.85;61.00
3968;BME280;9221;42.646;23.380;2022-11-20T04:07:50;93827.31;;;18.49;60.74
3968;BME280;9221;42.646;23.380;2022-11-20T04:10:15;93856.09;;;18.47;60.45
3968;BME280;9221;42.646;23.380;2022-11-20T04:12:41;93890.28;;;18.89;60.14
3968;BME280;9221;42.646;23.380;2022-11-20T04:15:06;93911.56;;;19.02;60.41
3968;BME280;9221;42.646;23.380;2022-11-20T04:17:32;93880.09;;;19.04;60.11
3968;BME280;9221;42.646;23.380;2022-11-20T04:19:57;93915.59;;;18.86;59.57
3968;BME280;9221;42.646;23.380;2022-11-20T04:22:23;93909.81;;;19.15;59.70
3968;BME280;9221;42.646;23.380;2022-11-20T04:24:48;93939.81;;;19.17;59.87
3968;BME280;9221;42.646;23.380;2022-11-20T04:27:13;93858.88;;;18.84;59.29
3968;BME280;9221;42.646;23.380;2022-11-20T04:29:39;93901.38;;;18.92;59.83
3968;BME280;9221;42.646;23.380;2022-11-20T04:32:04;93867.97;;;18.51;59.60
3968;BME280;9221;42.646;23.380;2022-11-20T04:34:30;93938.19;;;18.90;60.15
3968;BME280;9221;42.646;23.380;2022-11-20T04:36:55;93921.81;;;19.05;59.97
3968;BME280;9221;42.646;23.380;2022-11-20T04:39:20;93906.78;;;18.79;61.35
3968;BME280;9221;42.646;23.380;2022-11-20T04:41:46;93918.00;;;18.63;62.00
3968;BME280;9221;42.646;23.380;2022-11-20T04:44:11;93920.69;;;18.63;62.37
3968;BME280;9221;42.646;23.380;2022-11-20T04:46:41;93911.78;;;18.75;62.25
3968;BME280;9221;42.646;23.380;2022-11-20T04:49:07;93918.44;;;18.91;61.91
3968;BME280;9221;42.646;23.380;2022-11-20T04:51:33;93861.22;;;18.74;61.74
3968;BME280;9221;42.646;23.380;2022-11-20T04:53:59;93902.84;;;18.88;61.99
3968;BME280;9221;42.646;23.380;2022-11-20T04:56:25;93898.94;;;18.84;62.18
3968;BME280;9221;42.646;23.380;2022-11-20T04:58:50;93817.13;;;18.39;62.46
3968;BME280;9221;42.646;23.380;2022-11-20T05:01:19;93871.75;;;18.69;62.81
3968;BME280;9221;42.646;23.380;2022-11-20T05:03:45;93849.47;;;18.56;62.61
3968;BME280;9221;42.646;23.380;2022-11-20T05:06:13;93887.16;;;18.99;62.37
3968;BME280;9221;42.646;23.380;2022-11-20T05:08:39;93857.06;;;18.78;63.09
3968;BME280;9221;42.646;23.380;2022-11-20T05:11:10;93930.84;;;18.79;63.55
3968;BME280;9221;42.646;23.380;2022-11-20T05:13:36;93879.78;;;18.37;63.97
3968;BME280;9221;42.646;23.380;2022-11-20T05:16:07;93879.88;;;18.23;65.25
3968;BME280;9221;42.646;23.380;2022-11-20T05:18:34;93890.63;;;18.42;66.36
3968;BME280;9221;42.646;23.380;2022-11-20T05:21:00;93879.00;;;17.98;69.72
3968;BME280;9221;42.646;23.380;2022-11-20T05:23:27;93824.28;;;17.36;71.96
3968;BME280;9221;42.646;23.380;2022-11-20T05:25:57;93921.00;;;17.50;73.55
3968;BME280;9221;42.646;23.380;2022-11-20T05:28:23;93869.13;;;17.53;74.44
3968;BME280;9221;42.646;23.380;2022-11-20T05:30:49;93875.50;;;17.45;74.97
3968;BME280;9221;42.646;23.380;2022-11-20T05:33:15;93847.72;;;17.14;76.27
3968;BME280;9221;42.646;23.380;2022-11-20T05:35:41;93862.28;;;17.05;76.97
3968;BME280;9221;42.646;23.380;2022-11-20T05:38:07;93853.09;;;16.94;77.62
3968;BME280;9221;42.646;23.380;2022-11-20T05:40:32;93808.47;;;16.49;77.94
3968;BME280;9221;42.646;23.380;2022-11-20T05:42:58;93869.47;;;16.78;78.25
3968;BME280;9221;42.646;23.380;2022-11-20T05:45:24;93871.53;;;16.42;78.35
3968;BME280;9221;42.646;23.380;2022-11-20T05:47:49;93850.19;;;16.82;77.47
3968;BME280;9221;42.646;23.380;2022-11-20T05:50:15;93900.41;;;16.58;77.80
3968;BME280;9221;42.646;23.380;2022-11-20T05:52:40;93817.88;;;16.79;77.44
3968;BME280;9221;42.646;23.380;2022-11-20T05:55:06;93809.25;;;16.77;77.21
3968;BME280;9221;42.646;23.380;2022-11-20T05:57:32;93869.88;;;16.95;76.94
3968;BME280;9221;42.646;23.380;2022-11-20T05:59:58;93848.97;;;16.98;77.19
3968;BME280;9221;42.646;23.380;2022-11-20T06:02:23;93805.78;;;16.63;77.44
3968;BME280;9221;42.646;23.380;2022-11-20T06:04:49;93830.97;;;16.80;77.39
3968;BME280;9221;42.646;23.380;2022-11-20T06:07:14;93829.75;;;16.76;77.86
3968;BME280;9221;42.646;23.380;2022-11-20T06:09:39;93794.53;;;16.61;77.41
3968;BME280;9221;42.646;23.380;2022-11-20T06:12:05;93886.69;;;16.88;77.65
3968;BME280;9221;42.646;23.380;2022-11-20T06:14:31;93887.28;;;16.84;77.04
3968;BME280;9221;42.646;23.380;2022-11-20T06:16:56;93854.31;;;16.98;76.60
3968;BME280;9221;42.646;23.380;2022-11-20T06:19:22;93861.28;;;17.06;76.39
3968;BME280;9221;42.646;23.380;2022-11-20T06:21:48;93803.50;;;16.86;75.60
3968;BME280;9221;42.646;23.380;2022-11-20T06:24:16;93912.00;;;17.45;74.68
3968;BME280;9221;42.646;23.380;2022-11-20T06:26:42;93915.69;;;17.50;74.17
3968;BME280;9221;42.646;23.380;2022-11-20T06:29:07;93825.56;;;17.20;73.92
3968;BME280;9221;42.646;23.380;2022-11-20T06:31:33;93881.44;;;17.54;73.76
3968;BME280;9221;42.646;23.380;2022-11-20T06:34:03;93892.66;;;17.63;73.27
3968;BME280;9221;42.646;23.380;2022-11-20T06:36:30;93905.00;;;17.57;73.50
3968;BME280;9221;42.646;23.380;2022-11-20T06:38:56;93837.41;;;17.31;73.28
3968;BME280;9221;42.646;23.380;2022-11-20T06:41:22;93880.69;;;17.85;73.29
3968;BME280;9221;42.646;23.380;2022-11-20T06:43:47;93854.84;;;17.79;72.33
3968;BME280;9221;42.646;23.380;2022-11-20T06:46:15;93831.97;;;17.65;71.68
3968;BME280;9221;42.646;23.380;2022-11-20T06:48:43;93867.50;;;17.90;71.29
3968;BME280;9221;42.646;23.380;2022-11-20T06:51:08;93865.81;;;18.03;70.56
3968;BME280;9221;42.646;23.380;2022-11-20T06:53:34;93884.66;;;18.15;70.68
3968;BME280;9221;42.646;23.380;2022-11-20T06:56:00;93834.06;;;17.95;70.45
3968;BME280;9221;42.646;23.380;2022-11-20T06:58:30;93901.13;;;18.37;70.39
3968;BME280;9221;42.646;23.380;2022-11-20T07:01:06;93906.66;;;18.42;70.29
3968;BME280;9221;42.646;23.380;2022-11-20T07:03:32;93904.13;;;18.54;69.90
3968;BME280;9221;42.646;23.380;2022-11-20T07:05:58;93941.34;;;18.74;69.79
3968;BME280;9221;42.646;23.380;2022-11-20T07:08:25;93912.09;;;18.60;69.11
3968;BME280;9221;42.646;23.380;2022-11-20T07:10:50;93939.50;;;18.74;69.02
3968;BME280;9221;42.646;23.380;2022-11-20T07:13:16;93887.59;;;18.64;68.76
3968;BME280;9221;42.646;23.380;2022-11-20T07:15:41;93825.34;;;18.38;68.36
3968;BME280;9221;42.646;23.380;2022-11-20T07:18:07;93902.44;;;18.59;66.64
3968;BME280;9221;42.646;23.380;2022-11-20T07:20:32;93877.53;;;18.34;66.82
3968;BME280;9221;42.646;23.380;2022-11-20T07:22:58;93866.09;;;18.26;66.90
3968;BME280;9221;42.646;23.380;2022-11-20T07:25:25;93917.25;;;18.55;66.62
3968;BME280;9221;42.646;23.380;2022-11-20T07:27:52;93914.13;;;18.33;67.23
3968;BME280;9221;42.646;23.380;2022-11-20T07:30:18;93950.19;;;18.42;67.39
3968;BME280;9221;42.646;23.380;2022-11-20T07:32:50;93949.13;;;18.50;66.21
3968;BME280;9221;42.646;23.380;2022-11-20T07:35:16;93902.25;;;18.54;66.19
3968;BME280;9221;42.646;23.380;2022-11-20T07:37:41;93916.72;;;18.72;66.40
3968;BME280;9221;42.646;23.380;2022-11-20T07:40:07;93916.66;;;18.78;66.95
3968;BME280;9221;42.646;23.380;2022-11-20T07:42:32;93916.81;;;18.90;66.37
3968;BME280;9221;42.646;23.380;2022-11-20T07:44:58;93915.06;;;19.03;66.08
3968;BME280;9221;42.646;23.380;2022-11-20T07:47:23;93904.28;;;18.84;65.86
3968;BME280;9221;42.646;23.380;2022-11-20T07:49:48;93861.38;;;18.54;66.08
3968;BME280;9221;42.646;23.380;2022-11-20T07:52:14;93892.50;;;18.67;66.18
3968;BME280;9221;42.646;23.380;2022-11-20T07:54:39;93876.84;;;18.45;66.98
3968;BME280;9221;42.646;23.380;2022-11-20T07:57:05;93862.72;;;18.38;66.90
3968;BME280;9221;42.646;23.380;2022-11-20T07:59:30;93888.88;;;18.29;67.77
3968;BME280;9221;42.646;23.380;2022-11-20T08:01:55;93915.16;;;18.57;67.42
3968;BME280;9221;42.646;23.380;2022-11-20T08:04:21;93919.03;;;18.61;67.45
3968;BME280;9221;42.646;23.380;2022-11-20T08:06:46;93910.25;;;18.54;67.70
3968;BME280;9221;42.646;23.380;2022-11-20T08:09:12;93933.19;;;18.69;67.53
3968;BME280;9221;42.646;23.380;2022-11-20T08:11:37;93889.78;;;18.48;67.48
3968;BME280;9221;42.646;23.380;2022-11-20T08:14:21;93921.53;;;18.88;67.40
3968;BME280;9221;42.646;23.380;2022-11-20T08:16:47;93891.69;;;19.17;66.39
3968;BME280;9221;42.646;23.380;2022-11-20T08:19:15;93906.13;;;19.53;65.14
3968;BME280;9221;42.646;23.380;2022-11-20T08:21:41;93903.00;;;19.56;63.67
3968;BME280;9221;42.646;23.380;2022-11-20T08:24:07;93905.78;;;19.49;63.20
3968;BME280;9221;42.646;23.380;2022-11-20T08:26:34;93907.97;;;19.34;62.88
3968;BME280;9221;42.646;23.380;2022-11-20T08:29:00;93921.03;;;19.23;63.33
3968;BME280;9221;42.646;23.380;2022-11-20T08:31:26;93853.53;;;18.84;63.40
3968;BME280;9221;42.646;23.380;2022-11-20T08:33:52;93905.47;;;19.39;63.66
3968;BME280;9221;42.646;23.380;2022-11-20T08:36:19;93933.84;;;19.58;61.87
3968;BME280;9221;42.646;23.380;2022-11-20T08:38:49;93918.53;;;19.47;62.04
3968;BME280;9221;42.646;23.380;2022-11-20T08:41:16;93918.66;;;19.34;62.07
3968;BME280;9221;42.646;23.380;2022-11-20T08:44:04;93950.75;;;19.34;61.70
3968;BME280;9221;42.646;23.380;2022-11-20T08:46:34;93927.88;;;19.19;62.28
3968;BME280;9221;42.646;23.380;2022-11-20T08:49:03;93944.53;;;19.40;62.32
3968;BME280;9221;42.646;23.380;2022-11-20T08:51:29;93945.09;;;19.23;62.45
3968;BME280;9221;42.646;23.380;2022-11-20T08:53:55;93931.25;;;19.08;62.99
3968;BME280;9221;42.646;23.380;2022-11-20T08:56:20;93976.63;;;19.40;63.29
3968;BME280;9221;42.646;23.380;2022-11-20T08:58:46;94000.53;;;19.35;63.48
3968;BME280;9221;42.646;23.380;2022-11-20T09:01:11;93824.59;;;18.31;63.34
3968;BME280;9221;42.646;23.380;2022-11-20T09:03:37;93954.91;;;19.30;63.23
3968;BME280;9221;42.646;23.380;2022-11-20T09:06:05;93930.38;;;19.14;63.79
3968;BME280;9221;42.646;23.380;2022-11-20T09:08:31;93945.53;;;19.20;64.52
3968;BME280;9221;42.646;23.380;2022-11-20T09:10:57;93961.56;;;19.20;64.30
3968;BME280;9221;42.646;23.380;2022-11-20T09:13:24;93947.41;;;18.94;64.60
3968;BME280;9221;42.646;23.380;2022-11-20T09:18:20;93946.91;;;19.04;66.33
3968;BME280;9221;42.646;23.380;2022-11-20T09:20:45;93969.50;;;19.08;67.75
3968;BME280;9221;42.646;23.380;2022-11-20T09:23:11;93955.25;;;18.89;69.42
3968;BME280;9221;42.646;23.380;2022-11-20T09:25:36;93954.06;;;18.78;70.93
3968;BME280;9221;42.646;23.380;2022-11-20T09:28:02;93961.47;;;18.76;71.88
3968;BME280;9221;42.646;23.380;2022-11-20T09:30:27;94029.72;;;18.72;72.09
3968;BME280;9221;42.646;23.380;2022-11-20T09:32:53;93896.84;;;18.36;72.57
3968;BME280;9221;42.646;23.380;2022-11-20T09:35:18;93945.75;;;18.61;72.08
3968;BME280;9221;42.646;23.380;2022-11-20T09:37:45;93973.31;;;18.55;72.14
3968;BME280;9221;42.646;23.380;2022-11-20T09:40:25;93869.38;;;17.97;71.68
3968;BME280;9221;42.646;23.380;2022-11-20T09:43:12;93932.63;;;18.28;72.35
3968;BME280;9221;42.646;23.380;2022-11-20T09:56:22;93878.91;;;18.11;74.04
3968;BME280;9221;42.646;23.380;2022-11-20T09:58:52;93903.97;;;18.10;74.48
3968;BME280;9221;42.646;23.380;2022-11-20T10:01:22;93901.03;;;18.25;74.06
3968;BME280;9221;42.646;23.380;2022-11-20T10:04:06;93901.50;;;18.15;74.98
3968;BME280;9221;42.646;23.380;2022-11-20T10:06:44;93893.34;;;18.03;75.63
3968;BME280;9221;42.646;23.380;2022-11-20T10:11:48;93912.16;;;18.15;74.74
3968;BME280;9221;42.646;23.380;2022-11-20T10:20:30;93904.47;;;18.32;73.84
3968;BME280;9221;42.646;23.380;2022-11-20T10:31:09;93874.69;;;18.29;75.46
3968;BME280;9221;42.646;23.380;2022-11-20T10:33:39;93865.66;;;18.30;75.49
3968;BME280;9221;42.646;23.380;2022-11-20T10:36:28;93925.47;;;18.54;75.15
3968;BME280;9221;42.646;23.380;2022-11-20T10:39:03;93929.97;;;18.53;74.24
3968;BME280;9221;42.646;23.380;2022-11-20T10:41:34;93893.03;;;18.50;74.10
3968;BME280;9221;42.646;23.380;2022-11-20T10:44:11;93898.06;;;18.40;74.24
3968;BME280;9221;42.646;23.380;2022-11-20T10:46:46;93892.78;;;18.26;75.43
3968;BME280;9221;42.646;23.380;2022-11-20T10:49:17;93911.59;;;18.38;76.12
3968;BME280;9221;42.646;23.380;2022-11-20T10:51:56;93918.28;;;18.22;76.12
3968;BME280;9221;42.646;23.380;2022-11-20T11:00:05;93858.81;;;16.71;82.72
3968;BME280;9221;42.646;23.380;2022-11-20T11:02:50;93900.59;;;17.17;82.89
3968;BME280;9221;42.646;23.380;2022-11-20T11:08:00;93872.13;;;17.04;82.91
3968;BME280;9221;42.646;23.380;2022-11-20T11:13:27;93941.50;;;17.56;82.45
3968;BME280;9221;42.646;23.380;2022-11-20T11:15:53;93960.78;;;17.52;83.41
3968;BME280;9221;42.646;23.380;2022-11-20T11:18:33;93981.72;;;17.48;84.60
3968;BME280;9221;42.646;23.380;2022-11-20T11:21:01;93934.59;;;17.08;85.28
3968;BME280;9221;42.646;23.380;2022-11-20T11:23:41;94015.34;;;17.36;87.11
3968;BME280;9221;42.646;23.380;2022-11-20T11:26:19;94007.94;;;16.71;90.92
3968;BME280;9221;42.646;23.380;2022-11-20T11:29:03;93888.72;;;16.33;90.34
3968;BME280;9221;42.646;23.380;2022-11-20T11:31:34;93939.31;;;16.53;88.21
3968;BME280;9221;42.646;23.380;2022-11-20T11:36:33;93955.88;;;16.35;83.29
3968;BME280;9221;42.646;23.380;2022-11-20T11:38:59;93912.34;;;15.87;79.44
3968;BME280;9221;42.646;23.380;2022-11-20T11:41:30;94002.06;;;16.20;78.95
3968;BME280;9221;42.646;23.380;2022-11-20T11:44:01;93932.78;;;15.80;78.22
3968;BME280;9221;42.646;23.380;2022-11-20T11:46:56;93963.91;;;15.51;77.66
3968;BME280;9221;42.646;23.380;2022-11-20T11:49:22;93917.84;;;14.74;81.85
3968;BME280;9221;42.646;23.380;2022-11-20T11:52:00;93975.56;;;14.72;83.14
3968;BME280;9221;42.646;23.380;2022-11-20T11:54:36;93904.56;;;14.31;84.70
3968;BME280;9221;42.646;23.380;2022-11-20T11:57:09;93975.59;;;14.50;86.40
3968;BME280;9221;42.646;23.380;2022-11-20T11:59:41;94001.75;;;14.75;87.71
3968;BME280;9221;42.646;23.380;2022-11-20T12:03:08;93896.22;;;14.55;85.86
3968;BME280;9221;42.646;23.380;2022-11-20T12:05:29;93934.03;;;15.14;82.63
3968;BME280;9221;42.646;23.380;2022-11-20T12:08:03;93810.19;;;14.43;81.35
3968;BME280;9221;42.646;23.380;2022-11-20T12:10:48;93947.16;;;15.22;80.92
3968;BME280;9221;42.646;23.380;2022-11-20T12:13:20;93941.81;;;15.16;82.57
3968;BME280;9221;42.646;23.380;2022-11-20T12:15:48;93947.84;;;15.03;82.05
3968;BME280;9221;42.646;23.380;2022-11-20T12:18:21;93946.22;;;15.02;81.51
3968;BME280;9221;42.646;23.380;2022-11-20T12:21:05;93952.16;;;15.04;82.09
3968;BME280;9221;42.646;23.380;2022-11-20T12:31:59;93947.28;;;14.79;80.97
3968;BME280;9221;42.646;23.380;2022-11-20T12:37:49;93986.44;;;14.77;81.13
3968;BME280;9221;42.646;23.380;2022-11-20T12:43:27;93885.38;;;14.07;85.17
3968;BME280;9221;42.646;23.380;2022-11-20T12:46:24;93860.88;;;14.05;84.53
3968;BME280;9221;42.646;23.380;2022-11-20T12:49:04;93858.22;;;14.27;83.50
3968;BME280;9221;42.646;23.380;2022-11-20T12:51:39;93825.81;;;14.03;82.96
3968;BME280;9221;42.646;23.380;2022-11-20T12:54:17;93867.56;;;14.44;84.04
3968;BME280;9221;42.646;23.380;2022-11-20T13:02:29;93835.41;;;14.82;82.81
3968;BME280;9221;42.646;23.380;2022-11-20T13:07:53;93765.34;;;14.48;82.88
3968;BME280;9221;42.646;23.380;2022-11-20T13:15:48;93824.13;;;15.15;84.17
3968;BME280;9221;42.646;23.380;2022-11-20T13:18:16;93850.94;;;15.20;84.85
3968;BME280;9221;42.646;23.380;2022-11-20T13:20:43;93824.03;;;14.95;83.95
3968;BME280;9221;42.646;23.380;2022-11-20T13:23:09;93796.50;;;14.68;84.53
3968;BME280;9221;42.646;23.380;2022-11-20T13:25:37;93816.97;;;14.74;84.75
3968;BME280;9221;42.646;23.380;2022-11-20T13:28:24;93853.28;;;15.02;85.55
3968;BME280;9221;42.646;23.380;2022-11-20T13:30:52;93875.50;;;14.94;84.93
3968;BME280;9221;42.646;23.380;2022-11-20T13:33:35;93888.78;;;14.94;85.76
3968;BME280;9221;42.646;23.380;2022-11-20T13:38:27;93888.28;;;15.12;84.22
3968;BME280;9221;42.646;23.380;2022-11-20T13:40:55;93921.00;;;15.19;85.16
3968;BME280;9221;42.646;23.380;2022-11-20T13:46:03;93900.59;;;15.27;85.22
3968;BME280;9221;42.646;23.380;2022-11-20T13:48:38;93830.84;;;14.76;84.27
3968;BME280;9221;42.646;23.380;2022-11-20T13:59:56;93915.38;;;15.36;83.47
3968;BME280;9221;42.646;23.380;2022-11-20T14:02:25;93892.81;;;15.25;84.05
3968;BME280;9221;42.646;23.380;2022-11-20T14:04:54;93922.63;;;15.20;83.91
3968;BME280;9221;42.646;23.380;2022-11-20T14:07:27;93910.22;;;15.28;84.11
3968;BME280;9221;42.646;23.380;2022-11-20T14:09:57;93850.41;;;14.97;84.19
3968;BME280;9221;42.646;23.380;2022-11-20T14:12:31;93922.09;;;15.32;84.61
3968;BME280;9221;42.646;23.380;2022-11-20T14:14:57;93854.69;;;14.98;84.84
3968;BME280;9221;42.646;23.380;2022-11-20T14:17:34;93894.44;;;15.19;85.20
3968;BME280;9221;42.646;23.380;2022-11-20T14:20:03;93889.97;;;15.27;85.25
3968;BME280;9221;42.646;23.380;2022-11-20T14:22:29;93886.53;;;15.33;84.71
3968;BME280;9221;42.646;23.380;2022-11-20T14:27:44;93899.03;;;15.39;84.96
3968;BME280;9221;42.646;23.380;2022-11-20T14:30:16;93927.63;;;15.37;84.46
3968;BME280;9221;42.646;23.380;2022-11-20T14:32:44;93973.50;;;15.17;85.22
3968;BME280;9221;42.646;23.380;2022-11-20T14:35:16;93907.16;;;15.24;86.30
3968;BME280;9221;42.646;23.380;2022-11-20T14:37:44;93898.81;;;15.34;86.45
3968;BME280;9221;42.646;23.380;2022-11-20T14:40:25;93834.69;;;15.02;86.48
3968;BME280;9221;42.646;23.380;2022-11-20T14:42:51;93909.25;;;15.35;86.35
3968;BME280;9221;42.646;23.380;2022-11-20T14:45:18;93898.56;;;15.29;86.76
3968;BME280;9221;42.646;23.380;2022-11-20T14:47:44;93905.50;;;15.23;86.48
3968;BME280;9221;42.646;23.380;2022-11-20T14:50:18;93894.63;;;15.18;86.94
3968;BME280;9221;42.646;23.380;2022-11-20T14:53:10;93908.56;;;15.27;86.98
3968;BME280;9221;42.646;23.380;2022-11-20T14:55:58;93929.41;;;15.23;86.48